KGRB/GRB METAR and TAF weather

Enter ICAO airport designator
Station Type Date Time Source
KGRB METAR 2020/01/28 11:53 UTC NOAA

KGRB 281153Z 32004KT 10SM OVC023 M02/M07 A3005 RMK AO2 SLP185 T10171067 11006 21017 53003


Station Type Date Time Source
KGRB Decoded METAR 2020/01/28 11:53 UTC NOAA

AUSTIN STRAUBEL INTERNATIONAL AIRPORT , WI, United States (KGRB) 44-29N 088-08W 205M
Jan 28, 2020 - 06:53 AM EST / 2020.01.28 1153 UTC
Wind: from the NW (320 degrees) at 5 MPH (4 KT):0
Visibility: 10 mile(s):0
Sky conditions: overcast
Temperature: 28.9 F (-1.7 C)
Windchill: 23 F (-5 C):1
Dew Point: 19.9 F (-6.7 C)
Relative Humidity: 68%
Pressure (altimeter): 30.05 in. Hg (1017 hPa)
Pressure tendency: 0.01 inches (0.3 hPa) higher than three hours ago
ob: KGRB 281153Z 32004KT 10SM OVC023 M02/M07 A3005 RMK AO2 SLP185 T10171067 11006 21017 53003
cycle: 12

Station Type Date Time Source
KGRB TAF 2020/01/28 12:39 UTC NOAA

TAF KGRB 281136Z 2812/2912 VRB03KT P6SM -SHSN OVC022
FM281300 34002KT P6SM OVC024
FM281800 35004KT P6SM OVC030
FM290100 02003KT P6SM OVC025

Example: see airport list